createdAt,value
2022-11-15T00:02:21.486Z,13.98
2022-11-15T00:05:07.435Z,10.82
2022-11-15T00:07:56.379Z,7.97
2022-11-15T00:10:44.593Z,10.32
2022-11-15T00:13:30.766Z,7.95
2022-11-15T00:16:16.577Z,7.70
2022-11-15T00:19:01.861Z,6.68
2022-11-15T00:21:47.454Z,7.32
2022-11-15T00:24:32.896Z,11.40
2022-11-15T00:27:18.639Z,8.60
2022-11-15T00:30:04.320Z,8.80
2022-11-15T00:32:50.057Z,9.25
2022-11-15T00:35:35.812Z,7.15
2022-11-15T00:38:21.171Z,9.50
2022-11-15T00:41:10.201Z,10.50
2022-11-15T00:43:55.815Z,8.90
2022-11-15T00:46:41.336Z,8.02
2022-11-15T00:49:26.713Z,8.23
2022-11-15T00:52:12.014Z,7.95
2022-11-15T00:54:57.461Z,9.68
2022-11-15T00:57:43.013Z,5.43
2022-11-15T01:00:28.900Z,11.93
2022-11-15T01:03:14.613Z,7.93
2022-11-15T01:06:02.952Z,5.90
2022-11-15T01:08:48.451Z,8.77
2022-11-15T01:11:34.544Z,7.65
2022-11-15T01:14:25.071Z,9.80
2022-11-15T01:17:11.102Z,9.45
2022-11-15T01:19:56.643Z,6.68
2022-11-15T01:22:42.226Z,7.63
2022-11-15T01:25:27.915Z,8.82
2022-11-15T01:28:13.423Z,7.85
2022-11-15T01:31:00.604Z,9.57
2022-11-15T01:33:46.182Z,10.13
2022-11-15T01:36:31.843Z,10.70
2022-11-15T01:39:17.975Z,10.85
2022-11-15T01:42:04.232Z,10.32
2022-11-15T01:44:55.740Z,5.53
2022-11-15T01:47:45.364Z,10.45
2022-11-15T01:50:32.003Z,6.38
2022-11-15T01:53:20.428Z,6.90
2022-11-15T01:56:18.105Z,8.38
2022-11-15T01:59:05.547Z,9.65
2022-11-15T02:01:51.540Z,12.80
2022-11-15T02:04:41.619Z,7.68
2022-11-15T02:07:26.887Z,8.00
2022-11-15T02:10:14.877Z,10.20
2022-11-15T02:13:00.781Z,9.43
2022-11-15T02:16:17.983Z,9.85
2022-11-15T02:19:06.237Z,7.32
2022-11-15T02:22:12.886Z,12.88
2022-11-15T02:25:43.389Z,10.88
2022-11-15T02:29:05.811Z,8.30
2022-11-15T02:32:01.384Z,10.02
2022-11-15T02:35:03.888Z,8.00
2022-11-15T02:37:58.274Z,5.72
2022-11-15T02:41:19.499Z,7.38
2022-11-15T02:44:08.569Z,8.70
2022-11-15T02:47:14.566Z,6.07
2022-11-15T02:50:02.775Z,10.10
2022-11-15T02:52:49.622Z,11.65
2022-11-15T02:55:42.172Z,8.43
2022-11-15T02:58:41.799Z,9.65
2022-11-15T03:01:44.535Z,7.10
2022-11-15T03:04:43.673Z,10.50
2022-11-15T03:07:50.845Z,7.10
2022-11-15T03:11:03.281Z,8.73
2022-11-15T03:14:03.496Z,9.85
2022-11-15T03:16:57.725Z,7.53
2022-11-15T03:19:49.393Z,7.55
2022-11-15T03:22:36.848Z,9.15
2022-11-15T03:25:24.160Z,8.82
2022-11-15T03:28:10.778Z,10.40
2022-11-15T03:30:55.964Z,10.25
2022-11-15T03:33:41.226Z,8.85
2022-11-15T03:36:26.814Z,11.45
2022-11-15T03:39:16.268Z,7.85
2022-11-15T03:42:33.850Z,11.00
2022-11-15T03:45:23.373Z,9.38
2022-11-15T03:48:13.789Z,7.57
2022-11-15T03:50:59.449Z,6.72
2022-11-15T03:53:44.770Z,10.27
2022-11-15T03:56:29.949Z,11.55
2022-11-15T03:59:15.467Z,12.20
2022-11-15T04:02:00.812Z,11.45
2022-11-15T04:04:46.330Z,7.72
2022-11-15T04:07:32.298Z,9.45
2022-11-15T04:10:17.981Z,7.90
2022-11-15T04:13:03.541Z,11.32
2022-11-15T04:15:48.641Z,11.07
2022-11-15T04:18:34.122Z,12.15
2022-11-15T04:21:38.116Z,10.68
2022-11-15T04:24:23.548Z,10.65
2022-11-15T04:27:09.183Z,14.30
2022-11-15T04:29:54.712Z,11.20
2022-11-15T04:32:40.138Z,17.42
2022-11-15T04:35:25.695Z,10.75
2022-11-15T04:38:11.600Z,9.95
2022-11-15T04:40:57.201Z,13.02
2022-11-15T04:43:42.782Z,13.98
2022-11-15T04:46:29.431Z,9.68
2022-11-15T04:49:14.926Z,9.18
2022-11-15T04:52:00.436Z,9.65
2022-11-15T04:54:45.941Z,10.07
2022-11-15T04:57:31.500Z,13.40
2022-11-15T05:00:17.765Z,10.15
2022-11-15T05:03:21.500Z,13.75
2022-11-15T05:06:07.440Z,11.65
2022-11-15T05:08:53.110Z,15.30
2022-11-15T05:11:38.282Z,10.82
2022-11-15T05:14:25.130Z,9.15
2022-11-15T05:17:10.697Z,14.05
2022-11-15T05:19:56.458Z,12.00
2022-11-15T05:22:42.024Z,15.20
2022-11-15T05:25:27.650Z,7.72
2022-11-15T05:28:13.364Z,13.30
2022-11-15T05:31:05.016Z,13.60
2022-11-15T05:33:51.591Z,13.20
2022-11-15T05:36:42.328Z,10.52
2022-11-15T05:39:27.669Z,12.23
2022-11-15T05:42:14.396Z,12.00
2022-11-15T05:44:59.790Z,13.93
2022-11-15T05:47:45.066Z,12.27
2022-11-15T05:50:30.861Z,15.90
2022-11-15T05:53:17.152Z,10.73
2022-11-15T05:56:03.144Z,11.02
2022-11-15T05:58:48.356Z,19.30
2022-11-15T06:01:33.953Z,9.02
2022-11-15T06:04:19.365Z,11.93
2022-11-15T06:07:04.885Z,14.55
2022-11-15T06:09:50.857Z,10.90
2022-11-15T06:12:36.355Z,14.98
2022-11-15T06:15:21.891Z,11.18
2022-11-15T06:18:10.533Z,16.95
2022-11-15T06:20:59.961Z,14.10
2022-11-15T06:23:45.397Z,14.25
2022-11-15T06:26:31.135Z,10.93
2022-11-15T06:29:16.830Z,11.07
2022-11-15T06:32:02.483Z,11.27
2022-11-15T06:34:47.645Z,10.90
2022-11-15T06:37:34.336Z,14.90
2022-11-15T06:40:19.610Z,11.25
2022-11-15T06:43:08.755Z,11.10
2022-11-15T06:45:54.100Z,15.85
2022-11-15T06:48:39.393Z,12.35
2022-11-15T06:51:24.904Z,13.15
2022-11-15T06:54:10.253Z,10.65
2022-11-15T06:56:55.940Z,14.02
2022-11-15T06:59:43.691Z,12.25
2022-11-15T07:02:29.553Z,12.93
2022-11-15T07:05:15.448Z,12.43
2022-11-15T07:08:01.265Z,13.73
2022-11-15T07:10:46.998Z,14.77
2022-11-15T07:13:34.708Z,11.65
2022-11-15T07:16:20.531Z,10.95
2022-11-15T07:19:06.058Z,12.07
2022-11-15T07:21:51.659Z,9.05
2022-11-15T07:24:37.246Z,7.57
2022-11-15T07:27:24.886Z,13.48
2022-11-15T07:30:11.098Z,13.05
2022-11-15T07:33:00.607Z,11.18
2022-11-15T07:35:49.289Z,7.63
2022-11-15T07:38:41.042Z,7.45
2022-11-15T07:41:28.242Z,9.32
2022-11-15T07:44:13.977Z,7.55
2022-11-15T07:46:59.252Z,10.15
2022-11-15T07:49:44.658Z,9.95
2022-11-15T07:52:31.241Z,8.35
2022-11-15T07:55:17.041Z,10.20
2022-11-15T07:58:12.043Z,10.68
2022-11-15T08:00:57.323Z,9.57
2022-11-15T08:03:43.351Z,10.50
2022-11-15T08:06:28.956Z,8.60
2022-11-15T08:09:16.421Z,9.77
2022-11-15T08:12:01.975Z,9.93
2022-11-15T08:14:47.344Z,9.27
2022-11-15T08:17:33.989Z,7.78
2022-11-15T08:20:20.589Z,9.30
2022-11-15T08:23:06.264Z,6.15
2022-11-15T08:25:51.716Z,8.88
2022-11-15T08:28:37.009Z,8.45
2022-11-15T08:31:22.603Z,9.07
2022-11-15T08:34:08.376Z,9.95
2022-11-15T08:36:53.715Z,7.28
2022-11-15T08:39:39.452Z,9.85
2022-11-15T08:42:24.894Z,7.43
2022-11-15T08:45:10.986Z,8.25
2022-11-15T08:47:56.520Z,6.00
2022-11-15T08:50:42.039Z,5.97
2022-11-15T08:53:28.269Z,7.68
2022-11-15T08:56:16.711Z,8.30
2022-11-15T08:59:02.018Z,8.63
2022-11-15T09:01:47.755Z,8.15
2022-11-15T09:04:33.333Z,6.75
2022-11-15T09:07:19.260Z,6.68
2022-11-15T09:10:05.163Z,5.10
2022-11-15T09:12:52.603Z,4.30
2022-11-15T09:15:38.593Z,4.75
2022-11-15T09:18:23.877Z,4.65
2022-11-15T09:21:12.664Z,4.93
2022-11-15T09:23:58.469Z,5.13
2022-11-15T09:26:43.758Z,2.97
2022-11-15T09:29:32.585Z,4.72
2022-11-15T09:32:18.358Z,3.42
2022-11-15T09:35:04.215Z,3.92
2022-11-15T09:37:53.624Z,4.88
2022-11-15T09:40:41.846Z,4.82
2022-11-15T09:43:29.237Z,4.35
2022-11-15T09:47:08.071Z,4.18
2022-11-15T09:49:59.595Z,3.42
2022-11-15T09:52:32.858Z,2.70
2022-11-15T09:54:59.641Z,5.50
2022-11-15T09:57:51.562Z,4.05
2022-11-15T10:00:45.448Z,6.18
2022-11-15T10:03:11.297Z,4.25
2022-11-15T10:05:42.989Z,4.57
2022-11-15T10:08:31.358Z,7.28
2022-11-15T10:11:36.250Z,4.63
2022-11-15T10:14:01.917Z,4.70
2022-11-15T10:16:38.979Z,6.03
2022-11-15T10:19:11.882Z,4.28
2022-11-15T10:22:20.208Z,5.25
2022-11-15T10:24:47.243Z,3.75
2022-11-15T10:27:18.391Z,3.85
2022-11-15T10:29:46.873Z,4.13
2022-11-15T10:32:15.157Z,4.28
2022-11-15T10:34:42.101Z,4.47
2022-11-15T10:37:08.988Z,3.35
2022-11-15T10:39:35.912Z,5.43
2022-11-15T10:42:28.467Z,5.05
2022-11-15T10:44:55.573Z,5.20
2022-11-15T10:47:37.822Z,5.57
2022-11-15T10:50:08.652Z,6.22
2022-11-15T10:52:36.418Z,6.15
2022-11-15T10:55:18.460Z,5.82
2022-11-15T10:58:06.535Z,5.55
2022-11-15T11:00:35.693Z,6.28
2022-11-15T11:03:04.641Z,5.85
2022-11-15T11:05:39.922Z,5.53
2022-11-15T11:08:12.467Z,6.82
2022-11-15T11:11:00.021Z,4.65
2022-11-15T11:13:33.465Z,5.18
2022-11-15T11:16:03.384Z,7.03
2022-11-15T11:18:38.944Z,6.30
2022-11-15T11:21:12.977Z,5.38
2022-11-15T11:23:56.801Z,4.55
2022-11-15T11:26:32.741Z,5.72
2022-11-15T11:29:05.919Z,4.68
2022-11-15T11:31:48.590Z,5.40
2022-11-15T11:34:35.102Z,5.13
2022-11-15T11:37:05.954Z,4.68
2022-11-15T11:39:57.780Z,4.00
2022-11-15T11:42:52.571Z,4.53
2022-11-15T11:45:37.769Z,4.68
2022-11-15T11:48:15.137Z,3.63
2022-11-15T11:50:43.151Z,5.00
2022-11-15T11:53:35.038Z,4.32
2022-11-15T11:56:09.812Z,7.32
2022-11-15T11:58:44.663Z,6.03
2022-11-15T12:01:18.917Z,5.95
2022-11-15T12:04:05.729Z,3.88
2022-11-15T12:06:38.583Z,4.95
2022-11-15T12:09:15.676Z,4.72
2022-11-15T12:12:31.021Z,5.78
2022-11-15T12:15:09.843Z,6.35
2022-11-15T12:17:37.148Z,6.25
2022-11-15T12:20:09.034Z,6.43
2022-11-15T12:23:00.353Z,7.43
2022-11-15T12:25:34.221Z,7.10
2022-11-15T12:28:16.980Z,6.57
2022-11-15T12:31:03.517Z,4.63
2022-11-15T12:33:38.368Z,7.65
2022-11-15T12:36:39.416Z,7.00
2022-11-15T12:39:33.627Z,7.43
2022-11-15T12:42:00.971Z,8.32
2022-11-15T12:44:37.594Z,5.90
2022-11-15T12:47:24.522Z,6.13
2022-11-15T12:49:55.558Z,7.22
2022-11-15T12:52:25.116Z,6.28
2022-11-15T12:54:56.757Z,5.95
2022-11-15T12:57:27.778Z,8.45
2022-11-15T13:00:30.965Z,6.47
2022-11-15T13:03:24.601Z,5.82
2022-11-15T13:05:58.583Z,6.00
2022-11-15T13:09:22.133Z,8.13
2022-11-15T13:11:51.535Z,4.40
2022-11-15T13:14:38.812Z,7.45
2022-11-15T13:17:28.132Z,8.00
2022-11-15T13:20:05.004Z,7.10
2022-11-15T13:22:52.233Z,7.28
2022-11-15T13:25:37.997Z,8.15
2022-11-15T13:28:15.407Z,7.55
2022-11-15T13:31:17.712Z,8.18
2022-11-15T13:33:44.995Z,8.18
2022-11-15T13:36:23.226Z,6.00
2022-11-15T13:39:00.907Z,8.50
2022-11-15T13:41:35.528Z,8.23
2022-11-15T13:44:03.213Z,7.45
2022-11-15T13:46:31.518Z,6.00
2022-11-15T13:49:12.476Z,8.35
2022-11-15T13:51:48.630Z,9.05
2022-11-15T13:54:20.808Z,12.13
2022-11-15T13:59:39.006Z,8.13
2022-11-15T14:02:18.014Z,10.25
2022-11-15T14:04:57.947Z,9.85
2022-11-15T14:07:30.140Z,7.63
2022-11-15T14:12:36.039Z,9.68
2022-11-15T14:15:35.124Z,8.00
2022-11-15T14:18:05.215Z,7.78
2022-11-15T14:20:39.330Z,7.82
2022-11-15T14:23:29.822Z,5.97
2022-11-15T14:26:01.834Z,10.35
2022-11-15T14:28:34.981Z,6.88
2022-11-15T14:31:06.390Z,10.10
2022-11-15T14:33:35.270Z,8.32
2022-11-15T14:36:05.333Z,7.13
2022-11-15T14:38:32.691Z,8.88
2022-11-15T14:40:59.902Z,8.38
2022-11-15T14:43:26.864Z,8.93
2022-11-15T14:45:53.686Z,8.63
2022-11-15T14:48:20.991Z,8.98
2022-11-15T14:50:50.183Z,10.30
2022-11-15T14:53:20.992Z,10.75
2022-11-15T14:55:47.958Z,6.80
2022-11-15T14:58:15.272Z,9.15
2022-11-15T15:00:42.605Z,7.90
2022-11-15T15:03:09.717Z,9.57
2022-11-15T15:05:46.612Z,12.40
2022-11-15T15:08:15.094Z,12.30
2022-11-15T15:10:44.549Z,10.38
2022-11-15T15:13:25.288Z,20.77
2022-11-15T15:15:54.097Z,10.60
2022-11-15T15:18:21.626Z,12.45
2022-11-15T15:20:55.007Z,9.65
2022-11-15T15:23:27.058Z,8.02
2022-11-15T15:25:58.525Z,10.77
2022-11-15T15:28:31.288Z,9.90
2022-11-15T15:31:02.961Z,6.28
2022-11-15T15:33:29.860Z,10.82
2022-11-15T15:35:56.841Z,10.13
2022-11-15T15:38:23.762Z,9.98
2022-11-15T15:40:51.800Z,9.18
2022-11-15T15:43:18.732Z,8.88
2022-11-15T15:45:45.980Z,12.80
2022-11-15T15:48:14.145Z,12.25
2022-11-15T15:50:41.241Z,12.00
2022-11-15T15:53:09.220Z,10.48
2022-11-15T15:55:36.071Z,11.88
2022-11-15T15:58:03.193Z,12.60
2022-11-15T16:00:30.146Z,15.88
2022-11-15T16:02:59.633Z,13.57
2022-11-15T16:05:26.565Z,10.77
2022-11-15T16:07:53.784Z,10.57
2022-11-15T16:10:26.029Z,14.40
2022-11-15T16:15:24.154Z,10.65
2022-11-15T16:17:55.196Z,7.78
2022-11-15T16:20:24.477Z,12.50
2022-11-15T16:22:51.384Z,12.02
2022-11-15T16:25:18.345Z,9.13
2022-11-15T16:27:45.980Z,10.18
2022-11-15T16:30:17.777Z,13.25
2022-11-15T16:32:44.980Z,11.80
2022-11-15T16:35:13.679Z,12.75
2022-11-15T16:37:41.619Z,11.02
2022-11-15T16:40:18.865Z,10.18
2022-11-15T16:42:48.812Z,11.13
2022-11-15T16:45:15.760Z,10.48
2022-11-15T16:47:42.710Z,8.85
2022-11-15T16:50:24.163Z,12.23
2022-11-15T16:52:52.996Z,11.63
2022-11-15T16:55:20.707Z,9.05
2022-11-15T16:57:47.915Z,13.52
2022-11-15T17:00:16.690Z,11.95
2022-11-15T17:02:45.210Z,11.55
2022-11-15T17:05:17.288Z,10.32
2022-11-15T17:07:50.575Z,13.35
2022-11-15T17:10:17.654Z,11.82
2022-11-15T17:12:44.575Z,11.05
2022-11-15T17:15:12.343Z,14.48
2022-11-15T17:17:39.923Z,10.77
2022-11-15T17:20:11.009Z,12.60
2022-11-15T17:22:38.011Z,15.35
2022-11-15T17:25:05.432Z,20.00
2022-11-15T17:27:32.554Z,19.35
2022-11-15T17:30:04.129Z,14.63
2022-11-15T17:32:31.031Z,12.85
2022-11-15T17:34:57.978Z,15.27
2022-11-15T17:37:24.889Z,10.60
2022-11-15T17:39:51.738Z,12.60
2022-11-15T17:42:19.091Z,13.95
2022-11-15T17:44:45.955Z,13.30
2022-11-15T17:47:13.322Z,13.98
2022-11-15T17:49:42.467Z,17.95
2022-11-15T17:52:12.089Z,13.18
2022-11-15T17:54:39.091Z,13.27
2022-11-15T17:57:06.179Z,10.35
2022-11-15T17:59:33.050Z,10.77
2022-11-15T18:02:00.130Z,9.38
2022-11-15T18:04:29.053Z,6.95
2022-11-15T18:06:56.528Z,7.53
2022-11-15T18:09:24.789Z,8.55
2022-11-15T18:11:53.510Z,8.00
2022-11-15T18:14:20.598Z,5.53
2022-11-15T18:16:47.663Z,7.45
2022-11-15T18:19:15.311Z,7.05
2022-11-15T18:22:00.476Z,6.22
2022-11-15T18:24:31.113Z,5.65
2022-11-15T18:26:58.861Z,7.85
2022-11-15T18:29:29.017Z,6.95
2022-11-15T18:31:56.493Z,7.72
2022-11-15T18:34:24.486Z,4.72
2022-11-15T18:36:53.880Z,9.63
2022-11-15T18:39:20.873Z,6.20
2022-11-15T18:41:48.116Z,6.90
2022-11-15T18:44:15.332Z,7.47
2022-11-15T18:46:44.619Z,7.50
2022-11-15T18:49:16.149Z,8.48
2022-11-15T18:51:43.295Z,6.37
2022-11-15T18:54:12.087Z,8.07
2022-11-15T18:56:41.260Z,7.38
2022-11-15T18:59:08.881Z,15.32
2022-11-15T19:01:37.542Z,16.20
2022-11-15T19:04:12.817Z,10.88
2022-11-15T19:06:43.615Z,12.38
2022-11-15T19:09:11.547Z,10.07
2022-11-15T19:11:39.673Z,9.73
2022-11-15T19:14:08.717Z,9.77
2022-11-15T19:16:37.354Z,6.35
2022-11-15T19:19:06.270Z,10.93
2022-11-15T19:21:33.495Z,8.40
2022-11-15T19:24:00.732Z,11.07
2022-11-15T19:26:28.069Z,10.73
2022-11-15T19:28:56.580Z,10.35
2022-11-15T19:31:24.138Z,12.60
2022-11-15T19:33:52.645Z,11.73
2022-11-15T19:36:26.815Z,11.25
2022-11-15T19:38:54.517Z,10.55
2022-11-15T19:41:23.129Z,10.70
2022-11-15T19:43:52.933Z,11.70
2022-11-15T19:46:21.552Z,14.35
2022-11-15T19:48:48.727Z,12.95
2022-11-15T19:51:19.282Z,11.65
2022-11-15T19:53:49.824Z,14.35
2022-11-15T19:56:17.933Z,12.63
2022-11-15T19:58:45.283Z,9.60
2022-11-15T20:01:27.862Z,14.50
2022-11-15T20:06:25.198Z,11.73
2022-11-15T20:08:52.177Z,11.95
2022-11-15T20:11:21.849Z,9.80
2022-11-15T20:13:48.805Z,11.73
2022-11-15T20:16:19.892Z,11.80
2022-11-15T20:18:47.155Z,15.23
2022-11-15T20:21:14.234Z,13.13
2022-11-15T20:23:41.516Z,11.93
2022-11-15T20:26:09.527Z,11.10
2022-11-15T20:28:36.881Z,10.50
2022-11-15T20:31:03.966Z,11.30
2022-11-15T20:33:30.867Z,10.23
2022-11-15T20:35:57.705Z,8.52
2022-11-15T20:38:24.896Z,9.43
2022-11-15T20:40:57.411Z,12.63
2022-11-15T20:43:26.801Z,10.68
2022-11-15T20:45:53.735Z,11.55
2022-11-15T20:48:20.603Z,10.18
2022-11-15T20:50:47.581Z,11.57
2022-11-15T20:53:16.176Z,12.05
2022-11-15T20:55:52.234Z,8.38
2022-11-15T20:58:19.653Z,13.73
2022-11-15T21:00:46.629Z,9.95
2022-11-15T21:03:14.027Z,9.85
2022-11-15T21:05:45.177Z,10.10
2022-11-15T21:08:12.656Z,10.73
2022-11-15T21:10:59.000Z,10.55
2022-11-15T21:13:26.620Z,8.95
2022-11-15T21:15:57.506Z,9.98
2022-11-15T21:18:24.893Z,11.13
2022-11-15T21:20:52.198Z,9.70
2022-11-15T21:23:19.337Z,10.93
2022-11-15T21:25:50.499Z,11.50
2022-11-15T21:28:17.609Z,11.43
2022-11-15T21:30:58.425Z,12.25
2022-11-15T21:33:27.530Z,10.77
2022-11-15T21:35:55.056Z,9.65
2022-11-15T21:38:23.690Z,12.88
2022-11-15T21:40:53.121Z,8.98
2022-11-15T21:43:20.601Z,9.43
2022-11-15T21:45:57.717Z,9.90
2022-11-15T21:48:24.567Z,10.55
2022-11-15T21:51:05.779Z,15.27
2022-11-15T21:53:33.015Z,9.10
2022-11-15T21:56:00.244Z,10.75
2022-11-15T21:58:27.689Z,10.77
2022-11-15T22:01:13.862Z,8.30
2022-11-15T22:03:41.241Z,14.43
2022-11-15T22:06:11.736Z,10.13
2022-11-15T22:08:41.394Z,11.23
2022-11-15T22:11:08.416Z,15.75
2022-11-15T22:13:35.363Z,14.90
2022-11-15T22:16:02.284Z,10.40
2022-11-15T22:18:29.348Z,9.30
2022-11-15T22:20:57.764Z,11.13
2022-11-15T22:23:25.476Z,8.80
2022-11-15T22:25:52.386Z,11.30
2022-11-15T22:28:19.661Z,11.18
2022-11-15T22:30:47.511Z,8.60
2022-11-15T22:33:15.109Z,9.38
2022-11-15T22:35:42.023Z,12.57
2022-11-15T22:38:09.194Z,10.85
2022-11-15T22:40:36.218Z,8.82
2022-11-15T22:43:03.570Z,11.25
2022-11-15T22:45:30.549Z,9.75
2022-11-15T22:47:57.518Z,10.70
2022-11-15T22:50:24.525Z,11.02
2022-11-15T22:52:51.523Z,13.07
2022-11-15T22:55:20.403Z,10.35
2022-11-15T22:57:47.497Z,8.30
2022-11-15T23:00:15.652Z,8.18
2022-11-15T23:02:42.651Z,11.70
2022-11-15T23:05:09.623Z,9.20
2022-11-15T23:07:36.635Z,8.65
2022-11-15T23:10:22.652Z,11.30
2022-11-15T23:13:08.039Z,14.25
2022-11-15T23:15:54.021Z,10.73
2022-11-15T23:18:21.238Z,13.10
2022-11-15T23:20:48.072Z,7.90
2022-11-15T23:23:15.136Z,11.25
2022-11-15T23:25:42.166Z,11.32
2022-11-15T23:28:10.022Z,13.80
2022-11-15T23:30:56.143Z,10.40
2022-11-15T23:33:44.133Z,10.90
2022-11-15T23:36:11.355Z,8.23
2022-11-15T23:38:41.097Z,7.40
2022-11-15T23:41:07.964Z,6.97
2022-11-15T23:43:34.729Z,7.22
2022-11-15T23:46:02.569Z,6.65
2022-11-15T23:48:29.941Z,10.15
2022-11-15T23:50:57.036Z,7.28
2022-11-15T23:53:24.323Z,5.70
2022-11-15T23:55:56.308Z,7.88
2022-11-15T23:58:23.230Z,6.75
